createdAt,value
2023-10-16T00:01:05.404Z,4.00
2023-10-16T00:03:32.793Z,4.00
2023-10-16T00:05:59.917Z,4.05
2023-10-16T00:08:26.881Z,3.88
2023-10-16T00:10:58.576Z,3.85
2023-10-16T00:13:29.895Z,3.92
2023-10-16T00:16:03.858Z,3.82
2023-10-16T00:18:37.819Z,3.80
2023-10-16T00:21:06.686Z,3.87
2023-10-16T00:23:39.401Z,3.89
2023-10-16T00:26:22.882Z,3.88
2023-10-16T00:29:02.899Z,3.81
2023-10-16T00:31:34.306Z,3.92
2023-10-16T00:34:03.814Z,3.91
2023-10-16T00:36:32.480Z,3.90
2023-10-16T00:39:14.555Z,3.97
2023-10-16T00:41:45.004Z,4.01
2023-10-16T00:44:12.100Z,3.95
2023-10-16T00:46:39.890Z,3.90
2023-10-16T00:49:07.774Z,4.01
2023-10-16T00:51:40.901Z,3.96
2023-10-16T00:54:18.123Z,3.90
2023-10-16T00:56:53.016Z,3.89
2023-10-16T00:59:24.700Z,3.75
2023-10-16T01:02:11.266Z,3.64
2023-10-16T01:04:38.863Z,3.57
2023-10-16T01:07:07.087Z,3.41
2023-10-16T01:09:37.729Z,3.42
2023-10-16T01:12:08.837Z,3.55
2023-10-16T01:14:39.978Z,3.56
2023-10-16T01:17:10.717Z,3.41
2023-10-16T01:19:38.632Z,3.63
2023-10-16T01:22:05.840Z,3.77
2023-10-16T01:24:32.803Z,3.78
2023-10-16T01:27:08.097Z,3.98
2023-10-16T01:29:35.418Z,3.83
2023-10-16T01:32:02.431Z,3.65
2023-10-16T01:34:33.171Z,3.72
2023-10-16T01:37:08.973Z,3.71
2023-10-16T01:39:51.545Z,3.67
2023-10-16T01:42:20.154Z,3.57
2023-10-16T01:44:48.730Z,3.39
2023-10-16T01:47:19.154Z,3.35
2023-10-16T01:49:49.726Z,3.13
2023-10-16T01:52:17.323Z,3.30
2023-10-16T01:54:46.972Z,3.02
2023-10-16T01:57:14.247Z,3.12
2023-10-16T01:59:42.965Z,2.97
2023-10-16T02:02:10.745Z,3.03
2023-10-16T02:04:39.675Z,2.93
2023-10-16T02:07:10.836Z,3.01
2023-10-16T02:09:40.803Z,2.82
2023-10-16T02:12:12.590Z,2.98
2023-10-16T02:14:42.046Z,2.88
2023-10-16T02:17:23.070Z,2.92
2023-10-16T02:19:50.336Z,2.89
2023-10-16T02:22:18.325Z,2.92
2023-10-16T02:24:46.131Z,2.90
2023-10-16T02:27:14.292Z,2.86
2023-10-16T02:29:47.386Z,2.76
2023-10-16T02:32:14.973Z,2.71
2023-10-16T02:34:42.720Z,2.80
2023-10-16T02:37:14.832Z,2.64
2023-10-16T02:39:43.188Z,2.52
2023-10-16T02:42:16.544Z,2.55
2023-10-16T02:44:44.002Z,2.66
2023-10-16T02:47:15.032Z,2.55
2023-10-16T02:49:49.396Z,2.35
2023-10-16T02:52:20.908Z,2.54
2023-10-16T02:54:48.315Z,2.50
2023-10-16T02:57:16.275Z,2.50
2023-10-16T02:59:44.921Z,2.48
2023-10-16T03:02:24.310Z,2.48
2023-10-16T03:04:56.049Z,2.51
2023-10-16T03:07:22.977Z,2.52
2023-10-16T03:09:53.716Z,2.58
2023-10-16T03:12:21.609Z,2.60
2023-10-16T03:15:03.025Z,2.46
2023-10-16T03:17:34.070Z,2.21
2023-10-16T03:20:01.977Z,2.27
2023-10-16T03:22:30.190Z,2.13
2023-10-16T03:24:57.319Z,2.21
2023-10-16T03:27:30.617Z,2.15
2023-10-16T03:29:58.537Z,2.11
2023-10-16T03:32:26.031Z,2.02
2023-10-16T03:34:53.229Z,2.00
2023-10-16T03:37:20.833Z,1.97
2023-10-16T03:39:47.917Z,1.96
2023-10-16T03:42:19.126Z,1.90
2023-10-16T03:44:46.538Z,1.70
2023-10-16T03:47:15.851Z,1.81
2023-10-16T03:49:42.865Z,1.81
2023-10-16T03:52:10.227Z,1.77
2023-10-16T03:54:37.227Z,1.65
2023-10-16T03:57:11.625Z,1.74
2023-10-16T03:59:44.286Z,1.64
2023-10-16T04:02:18.457Z,1.51
2023-10-16T04:04:45.548Z,1.39
2023-10-16T04:07:15.645Z,1.49
2023-10-16T04:09:51.254Z,1.54
2023-10-16T04:12:23.135Z,1.35
2023-10-16T04:15:05.665Z,1.37
2023-10-16T04:17:36.093Z,1.38
2023-10-16T04:20:23.172Z,1.33
2023-10-16T04:22:59.454Z,1.35
2023-10-16T04:25:35.059Z,1.26
2023-10-16T04:28:20.238Z,1.23
2023-10-16T04:30:49.552Z,1.21
2023-10-16T04:33:36.798Z,1.19
2023-10-16T04:36:32.326Z,1.17
2023-10-16T04:39:20.451Z,1.24
2023-10-16T04:42:05.993Z,1.23
2023-10-16T04:44:51.058Z,1.22
2023-10-16T04:47:21.139Z,1.17
2023-10-16T04:50:01.735Z,1.28
2023-10-16T04:52:47.570Z,1.19
2023-10-16T04:55:34.514Z,1.16
2023-10-16T04:58:21.324Z,1.19
2023-10-16T05:00:59.300Z,1.24
2023-10-16T05:03:39.098Z,1.05
2023-10-16T05:06:27.771Z,1.28
2023-10-16T05:09:14.307Z,1.22
2023-10-16T05:11:56.536Z,1.06
2023-10-16T05:14:50.473Z,1.21
2023-10-16T05:17:23.309Z,1.24
2023-10-16T05:20:16.259Z,1.31
2023-10-16T05:22:49.264Z,1.34
2023-10-16T05:25:35.168Z,1.35
2023-10-16T05:28:20.559Z,1.35
2023-10-16T05:31:06.111Z,1.25
2023-10-16T05:33:51.488Z,1.33
2023-10-16T05:36:44.665Z,1.20
2023-10-16T05:39:29.897Z,1.37
2023-10-16T05:42:15.553Z,1.30
2023-10-16T05:45:00.879Z,1.38
2023-10-16T05:48:00.214Z,1.35
2023-10-16T05:50:45.599Z,1.44
2023-10-16T05:53:30.800Z,1.50
2023-10-16T05:56:16.468Z,1.66
2023-10-16T05:59:01.876Z,1.76
2023-10-16T06:01:47.487Z,1.78
2023-10-16T06:04:33.223Z,1.76
2023-10-16T06:07:18.626Z,1.86
2023-10-16T06:10:04.164Z,1.86
2023-10-16T06:13:03.672Z,2.02
2023-10-16T06:15:33.304Z,2.04
2023-10-16T06:18:06.016Z,2.04
2023-10-16T06:20:33.236Z,2.14
2023-10-16T06:23:00.126Z,2.24
2023-10-16T06:25:30.644Z,2.28
2023-10-16T06:27:57.677Z,2.41
2023-10-16T06:30:24.980Z,2.51
2023-10-16T06:32:54.152Z,2.59
2023-10-16T06:35:21.272Z,2.74
2023-10-16T06:37:53.188Z,2.76
2023-10-16T06:40:26.214Z,2.99
2023-10-16T06:43:10.798Z,3.01
2023-10-16T06:45:44.077Z,3.21
2023-10-16T06:48:16.748Z,3.12
2023-10-16T06:50:54.551Z,3.28
2023-10-16T06:53:25.236Z,3.12
2023-10-16T06:55:52.406Z,3.06
2023-10-16T06:58:22.377Z,2.98
2023-10-16T07:00:51.190Z,3.08
2023-10-16T07:03:18.451Z,2.96
2023-10-16T07:05:45.593Z,2.92
2023-10-16T07:08:19.509Z,2.95
2023-10-16T07:10:52.475Z,2.98
2023-10-16T07:13:30.581Z,2.99
2023-10-16T07:16:01.332Z,2.98
2023-10-16T07:18:29.594Z,3.00
2023-10-16T07:21:01.446Z,2.99
2023-10-16T07:23:30.802Z,2.90
2023-10-16T07:25:59.511Z,3.01
2023-10-16T07:28:28.316Z,3.06
2023-10-16T07:30:59.681Z,3.01
2023-10-16T07:33:28.191Z,3.08
2023-10-16T07:35:57.203Z,3.12
2023-10-16T07:38:27.416Z,3.34
2023-10-16T07:40:55.305Z,3.36
2023-10-16T07:43:29.833Z,3.28
2023-10-16T07:46:12.375Z,3.22
2023-10-16T07:48:43.563Z,3.41
2023-10-16T07:51:10.429Z,3.42
2023-10-16T07:53:38.090Z,3.32
2023-10-16T07:56:20.685Z,3.49
2023-10-16T07:59:07.501Z,3.61
2023-10-16T08:01:56.085Z,3.76
2023-10-16T08:04:23.655Z,4.07
2023-10-16T08:07:19.216Z,4.74
2023-10-16T08:09:59.211Z,5.58
2023-10-16T08:12:35.285Z,6.11
2023-10-16T08:15:10.212Z,6.68
2023-10-16T08:17:38.228Z,7.12
2023-10-16T08:20:08.460Z,7.55
2023-10-16T08:22:36.245Z,7.90
2023-10-16T08:25:06.095Z,8.26
2023-10-16T08:27:41.770Z,8.51
2023-10-16T08:30:30.476Z,8.85
2023-10-16T08:33:07.666Z,9.00
2023-10-16T08:35:43.120Z,9.22
2023-10-16T08:38:37.397Z,9.28
2023-10-16T08:41:08.965Z,9.35
2023-10-16T08:43:49.534Z,9.53
2023-10-16T08:46:35.101Z,9.48
2023-10-16T08:49:04.174Z,9.73
2023-10-16T08:51:31.787Z,9.80
2023-10-16T08:54:03.595Z,9.91
2023-10-16T08:56:31.149Z,10.01
2023-10-16T08:58:58.942Z,10.23
2023-10-16T09:01:29.844Z,10.46
2023-10-16T09:04:07.881Z,10.80
2023-10-16T09:06:38.848Z,10.83
2023-10-16T09:09:17.797Z,11.09
2023-10-16T09:11:46.806Z,11.32
2023-10-16T09:14:22.498Z,11.60
2023-10-16T09:16:53.765Z,11.80
2023-10-16T09:19:21.090Z,11.86
2023-10-16T09:21:54.698Z,11.70
2023-10-16T09:24:21.848Z,11.70
2023-10-16T09:26:48.824Z,11.73
2023-10-16T09:29:21.570Z,11.73
2023-10-16T09:31:49.718Z,11.66
2023-10-16T09:34:21.004Z,11.81
2023-10-16T09:37:12.275Z,11.89
2023-10-16T09:39:42.127Z,12.14
2023-10-16T09:42:16.057Z,12.44
2023-10-16T09:44:57.716Z,12.56
2023-10-16T09:47:29.097Z,12.57
2023-10-16T09:50:01.106Z,12.53
2023-10-16T09:52:34.835Z,12.58
2023-10-16T09:55:02.151Z,12.40
2023-10-16T09:57:32.494Z,12.63
2023-10-16T10:00:23.159Z,12.75
2023-10-16T10:02:54.597Z,12.31
2023-10-16T10:05:33.081Z,12.45
2023-10-16T10:08:02.485Z,12.36
2023-10-16T10:10:33.029Z,12.02
2023-10-16T10:13:11.334Z,11.84
2023-10-16T10:15:46.538Z,11.54
2023-10-16T10:18:34.830Z,11.49
2023-10-16T10:21:04.102Z,11.01
2023-10-16T10:23:33.742Z,10.90
2023-10-16T10:26:08.529Z,11.14
2023-10-16T10:28:39.482Z,11.00
2023-10-16T10:31:06.904Z,11.00
2023-10-16T10:33:59.362Z,10.73
2023-10-16T10:36:37.934Z,10.84
2023-10-16T10:39:23.528Z,10.91
2023-10-16T10:41:59.678Z,10.99
2023-10-16T10:44:34.594Z,10.77
2023-10-16T10:47:06.384Z,10.42
2023-10-16T10:49:35.076Z,10.52
2023-10-16T10:52:02.895Z,10.70
2023-10-16T10:54:30.222Z,10.87
2023-10-16T10:57:02.741Z,11.02
2023-10-16T10:59:48.994Z,10.80
2023-10-16T11:02:19.596Z,10.87
2023-10-16T11:05:00.215Z,10.72
2023-10-16T11:08:00.424Z,10.74
2023-10-16T11:10:27.151Z,10.71
2023-10-16T11:13:05.227Z,10.90
2023-10-16T11:15:32.339Z,10.88
2023-10-16T11:18:08.417Z,10.82
2023-10-16T11:20:38.391Z,10.82
2023-10-16T11:23:14.112Z,10.83
2023-10-16T11:25:45.575Z,10.86
2023-10-16T11:28:18.732Z,10.93
2023-10-16T11:30:51.214Z,11.01
2023-10-16T11:33:48.688Z,10.83
2023-10-16T11:36:21.475Z,10.84
2023-10-16T11:38:48.935Z,10.92
2023-10-16T11:41:21.085Z,10.95
2023-10-16T11:43:55.070Z,11.04
2023-10-16T11:46:35.954Z,11.15
2023-10-16T11:49:19.070Z,11.06
2023-10-16T11:51:50.936Z,11.10
2023-10-16T11:54:21.791Z,11.42
2023-10-16T11:56:58.211Z,11.44
2023-10-16T11:59:29.597Z,11.35
2023-10-16T12:02:12.227Z,11.37
2023-10-16T12:04:42.236Z,11.41
2023-10-16T12:07:09.969Z,11.42
2023-10-16T12:09:44.180Z,11.49
2023-10-16T12:12:21.029Z,11.48
2023-10-16T12:14:50.146Z,11.50
2023-10-16T12:17:20.816Z,11.45
2023-10-16T12:19:48.597Z,11.59
2023-10-16T12:22:22.535Z,11.51
2023-10-16T12:24:50.430Z,11.49
2023-10-16T12:27:17.537Z,11.51
2023-10-16T12:29:45.998Z,11.48
2023-10-16T12:32:14.529Z,11.66
2023-10-16T12:34:42.697Z,11.77
2023-10-16T12:37:10.934Z,11.64
2023-10-16T12:39:47.706Z,11.63
2023-10-16T12:42:15.921Z,11.62
2023-10-16T12:44:44.799Z,11.57
2023-10-16T12:47:24.129Z,11.75
2023-10-16T12:49:55.148Z,11.88
2023-10-16T12:52:22.069Z,11.82
2023-10-16T12:54:54.221Z,11.67
2023-10-16T12:57:22.941Z,11.76
2023-10-16T12:59:49.743Z,11.60
2023-10-16T13:02:26.463Z,11.83
2023-10-16T13:04:53.958Z,11.98
2023-10-16T13:07:39.225Z,11.98
2023-10-16T13:10:11.727Z,12.09
2023-10-16T13:12:38.762Z,12.07
2023-10-16T13:15:07.763Z,12.15
2023-10-16T13:17:35.577Z,11.98
2023-10-16T13:20:02.545Z,11.96
2023-10-16T13:22:30.925Z,12.03
2023-10-16T13:24:57.830Z,11.87
2023-10-16T13:27:24.604Z,12.00
2023-10-16T13:29:53.172Z,12.19
2023-10-16T13:32:20.036Z,12.26
2023-10-16T13:34:47.368Z,12.15
2023-10-16T13:37:14.248Z,12.30
2023-10-16T13:39:41.101Z,12.32
2023-10-16T13:42:11.824Z,12.51
2023-10-16T13:44:38.677Z,12.77
2023-10-16T13:47:10.218Z,12.93
2023-10-16T13:49:42.732Z,13.18
2023-10-16T13:52:09.707Z,13.40
2023-10-16T13:54:39.959Z,13.98
2023-10-16T13:57:08.558Z,14.08
2023-10-16T13:59:35.768Z,13.98
2023-10-16T14:02:06.816Z,13.66
2023-10-16T14:04:36.580Z,13.60
2023-10-16T14:07:09.639Z,13.77
2023-10-16T14:09:37.191Z,14.09
2023-10-16T14:12:04.474Z,14.07
2023-10-16T14:14:34.549Z,14.04
2023-10-16T14:17:18.001Z,14.38
2023-10-16T14:19:52.308Z,14.36
2023-10-16T14:22:19.059Z,14.36
2023-10-16T14:24:46.076Z,14.11
2023-10-16T14:27:21.981Z,14.13
2023-10-16T14:30:00.484Z,14.04
2023-10-16T14:32:28.126Z,13.68
2023-10-16T14:34:54.979Z,13.37
2023-10-16T14:37:21.749Z,13.36
2023-10-16T14:39:53.140Z,13.53
2023-10-16T14:42:20.035Z,13.55
2023-10-16T14:44:47.964Z,13.33
2023-10-16T14:47:16.453Z,13.53
2023-10-16T14:49:43.238Z,13.25
2023-10-16T14:52:10.096Z,13.01
2023-10-16T14:54:36.964Z,13.18
2023-10-16T14:57:05.248Z,13.25
2023-10-16T14:59:36.409Z,13.21
2023-10-16T15:02:06.058Z,13.17
2023-10-16T15:04:33.461Z,12.90
2023-10-16T15:07:06.445Z,12.22
2023-10-16T15:09:33.887Z,12.00
2023-10-16T15:12:00.991Z,11.62
2023-10-16T15:14:30.614Z,11.36
2023-10-16T15:16:57.917Z,11.11
2023-10-16T15:19:28.496Z,10.92
2023-10-16T15:21:56.263Z,10.41
2023-10-16T15:24:23.150Z,10.50
2023-10-16T15:26:50.046Z,10.05
2023-10-16T15:29:18.207Z,9.90
2023-10-16T15:31:45.333Z,9.79
2023-10-16T15:34:14.311Z,9.44
2023-10-16T15:36:42.141Z,9.38
2023-10-16T15:39:17.150Z,9.22
2023-10-16T15:41:47.530Z,8.86
2023-10-16T15:44:14.693Z,8.55
2023-10-16T15:46:42.172Z,8.36
2023-10-16T15:49:09.627Z,8.42
2023-10-16T15:51:38.248Z,8.29
2023-10-16T15:54:06.281Z,8.26
2023-10-16T15:56:33.571Z,8.13
2023-10-16T15:59:00.435Z,7.90
2023-10-16T16:01:27.856Z,7.73
2023-10-16T16:04:02.732Z,7.53
2023-10-16T16:06:34.704Z,7.63
2023-10-16T16:09:02.367Z,7.51
2023-10-16T16:11:31.207Z,7.32
2023-10-16T16:13:58.378Z,7.24
2023-10-16T16:16:26.930Z,6.99
2023-10-16T16:18:54.608Z,7.03
2023-10-16T16:21:22.187Z,6.95
2023-10-16T16:23:50.769Z,6.59
2023-10-16T16:26:18.452Z,6.73
2023-10-16T16:28:48.876Z,6.25
2023-10-16T16:31:17.853Z,6.39
2023-10-16T16:33:46.114Z,6.15
2023-10-16T16:36:15.754Z,6.29
2023-10-16T16:38:43.137Z,6.45
2023-10-16T16:41:13.905Z,6.22
2023-10-16T16:43:41.424Z,6.06
2023-10-16T16:46:09.227Z,5.92
2023-10-16T16:48:36.691Z,5.91
2023-10-16T16:51:04.253Z,6.05
2023-10-16T16:53:33.994Z,5.74
2023-10-16T16:56:01.422Z,5.81
2023-10-16T16:58:28.529Z,5.64
2023-10-16T17:00:56.093Z,5.49
2023-10-16T17:03:23.375Z,5.49
2023-10-16T17:05:50.434Z,5.53
2023-10-16T17:08:18.097Z,5.40
2023-10-16T17:10:46.124Z,5.33
2023-10-16T17:13:13.916Z,5.26
2023-10-16T17:15:41.614Z,5.20
2023-10-16T17:18:09.509Z,5.19
2023-10-16T17:20:38.177Z,4.96
2023-10-16T17:23:06.582Z,4.95
2023-10-16T17:25:36.311Z,4.86
2023-10-16T17:28:04.727Z,4.75
2023-10-16T17:30:32.597Z,4.90
2023-10-16T17:32:59.986Z,4.94
2023-10-16T17:35:45.727Z,4.65
2023-10-16T17:38:15.077Z,4.51
2023-10-16T17:40:42.377Z,4.56
2023-10-16T17:43:11.151Z,4.38
2023-10-16T17:45:40.270Z,4.44
2023-10-16T17:48:09.011Z,4.32
2023-10-16T17:50:37.326Z,4.16
2023-10-16T17:53:09.351Z,4.23
2023-10-16T17:55:38.546Z,4.28
2023-10-16T17:58:06.668Z,4.11
2023-10-16T18:00:44.628Z,4.17
2023-10-16T18:03:12.326Z,4.16
2023-10-16T18:05:40.333Z,4.09
2023-10-16T18:08:10.945Z,4.04
2023-10-16T18:10:49.362Z,3.84
2023-10-16T18:13:17.262Z,3.91
2023-10-16T18:15:55.727Z,3.81
2023-10-16T18:18:24.931Z,3.74
2023-10-16T18:20:52.657Z,3.68
2023-10-16T18:23:21.079Z,3.71
2023-10-16T18:25:48.978Z,3.59
2023-10-16T18:28:19.189Z,3.72
2023-10-16T18:30:46.232Z,3.68
2023-10-16T18:33:14.106Z,3.61
2023-10-16T18:35:43.158Z,3.59
2023-10-16T18:38:14.351Z,3.55
2023-10-16T18:40:42.517Z,3.41
2023-10-16T18:43:11.526Z,3.11
2023-10-16T18:45:42.253Z,3.43
2023-10-16T18:48:13.648Z,3.09
2023-10-16T18:50:41.531Z,3.34
2023-10-16T18:53:12.309Z,3.26
2023-10-16T18:55:39.898Z,3.06
2023-10-16T18:58:07.289Z,3.04
2023-10-16T19:00:38.715Z,2.91
2023-10-16T19:03:07.849Z,3.13
2023-10-16T19:05:35.716Z,2.95
2023-10-16T19:08:03.325Z,2.82
2023-10-16T19:10:30.821Z,2.81
2023-10-16T19:13:00.281Z,3.04
2023-10-16T19:15:27.492Z,2.99
2023-10-16T19:17:56.506Z,3.00
2023-10-16T19:20:24.628Z,2.96
2023-10-16T19:22:55.470Z,2.87
2023-10-16T19:25:23.362Z,2.81
2023-10-16T19:27:51.789Z,2.73
2023-10-16T19:30:19.770Z,2.56
2023-10-16T19:32:47.995Z,2.74
2023-10-16T19:35:17.733Z,2.75
2023-10-16T19:37:45.930Z,2.64
2023-10-16T19:40:14.025Z,2.65
2023-10-16T19:42:48.636Z,2.76
2023-10-16T19:45:19.250Z,2.68
2023-10-16T19:47:50.177Z,2.62
2023-10-16T19:50:18.979Z,2.54
2023-10-16T19:52:48.283Z,2.51
2023-10-16T19:55:22.570Z,2.55
2023-10-16T19:57:53.160Z,2.46
2023-10-16T20:00:28.250Z,2.47
2023-10-16T20:02:55.969Z,2.45
2023-10-16T20:05:25.360Z,2.40
2023-10-16T20:07:57.250Z,2.35
2023-10-16T20:10:26.009Z,2.27
2023-10-16T20:12:59.832Z,2.33
2023-10-16T20:15:30.535Z,2.30
2023-10-16T20:17:58.589Z,2.26
2023-10-16T20:20:26.081Z,2.22
2023-10-16T20:23:03.602Z,2.23
2023-10-16T20:25:35.907Z,2.34
2023-10-16T20:28:06.612Z,2.36
2023-10-16T20:30:37.099Z,2.38
2023-10-16T20:33:08.021Z,2.25
2023-10-16T20:35:36.205Z,2.09
2023-10-16T20:38:04.180Z,2.12
2023-10-16T20:40:32.412Z,2.09
2023-10-16T20:42:59.249Z,2.02
2023-10-16T20:45:29.027Z,2.03
2023-10-16T20:47:59.693Z,1.89
2023-10-16T20:50:30.335Z,1.87
2023-10-16T20:52:57.206Z,1.88
2023-10-16T20:55:24.195Z,1.85
2023-10-16T20:57:53.010Z,1.83
2023-10-16T21:00:26.613Z,1.79
2023-10-16T21:02:55.450Z,1.78
2023-10-16T21:05:30.802Z,1.76
2023-10-16T21:08:01.057Z,1.76
2023-10-16T21:10:29.337Z,1.62
2023-10-16T21:12:57.689Z,1.68
2023-10-16T21:15:27.881Z,1.66
2023-10-16T21:17:54.673Z,1.69
2023-10-16T21:20:21.517Z,1.61
2023-10-16T21:22:50.867Z,1.53
2023-10-16T21:25:18.764Z,1.59
2023-10-16T21:27:45.556Z,1.55
2023-10-16T21:30:13.844Z,1.58
2023-10-16T21:32:41.209Z,1.51
2023-10-16T21:35:10.053Z,1.55
2023-10-16T21:37:39.320Z,1.57
2023-10-16T21:40:07.715Z,1.64
2023-10-16T21:42:35.106Z,1.58
2023-10-16T21:45:02.349Z,1.53
2023-10-16T21:47:29.287Z,1.45
2023-10-16T21:49:56.151Z,1.50
2023-10-16T21:52:22.893Z,1.46
2023-10-16T21:54:49.786Z,1.39
2023-10-16T21:57:16.740Z,1.44
2023-10-16T21:59:44.601Z,1.47
2023-10-16T22:02:17.208Z,1.36
2023-10-16T22:04:46.506Z,1.45
2023-10-16T22:07:15.990Z,1.47
2023-10-16T22:09:43.782Z,1.38
2023-10-16T22:12:14.849Z,1.35
2023-10-16T22:14:44.562Z,1.42
2023-10-16T22:17:15.545Z,1.40
2023-10-16T22:19:42.301Z,1.33
2023-10-16T22:22:09.245Z,1.30
2023-10-16T22:24:40.207Z,1.51
2023-10-16T22:27:14.876Z,1.49
2023-10-16T22:29:41.869Z,1.45
2023-10-16T22:32:08.688Z,1.38
2023-10-16T22:34:36.475Z,1.39
2023-10-16T22:37:03.389Z,1.31
2023-10-16T22:39:30.147Z,1.40
2023-10-16T22:41:58.622Z,1.31
2023-10-16T22:44:25.888Z,1.33
2023-10-16T22:46:53.295Z,1.27
2023-10-16T22:49:20.606Z,1.37
2023-10-16T22:51:48.873Z,1.30
2023-10-16T22:54:16.968Z,1.42
2023-10-16T22:56:45.995Z,1.36
2023-10-16T22:59:12.798Z,1.27
2023-10-16T23:03:36.709Z,1.26
2023-10-16T23:06:03.919Z,1.32
2023-10-16T23:08:33.562Z,1.29
2023-10-16T23:11:11.353Z,1.32
2023-10-16T23:13:38.181Z,1.41
2023-10-16T23:16:08.373Z,1.37
2023-10-16T23:18:35.398Z,1.38
2023-10-16T23:21:02.318Z,1.30
2023-10-16T23:23:30.348Z,1.37
2023-10-16T23:26:03.507Z,1.28
2023-10-16T23:28:30.917Z,1.24
2023-10-16T23:31:03.167Z,1.26
2023-10-16T23:33:30.681Z,1.18
2023-10-16T23:36:00.897Z,1.33
2023-10-16T23:38:32.109Z,1.33
2023-10-16T23:41:05.475Z,1.34
2023-10-16T23:43:46.615Z,1.29
2023-10-16T23:46:13.427Z,1.27
2023-10-16T23:48:45.819Z,1.28
2023-10-16T23:51:14.648Z,1.28
2023-10-16T23:53:50.748Z,1.38
2023-10-16T23:56:18.978Z,1.33
2023-10-16T23:58:52.426Z,1.36
